Volant, Pennsylvania
Current Conditions -  °F | °C
As of 5:51 PM on Thursday 20 Nov 2014 (Local Time) from KYNG Reporting Station
Light Snow Light Snow  
Wind Chill: 12°   Ceiling: 4000
Heat Index: 24°   Visibility: 9mi
Dew Point: 12°   Wind: 13mph
Humidity: 60%   Direction: 250°WSW
Pressure: 30.01"   Gusts: 25mph
Location:  41.11°N, 80.26°W
Report Text: KYNG 202251Z 25011G22KT 9SM -SN BKN040 OVC055 M04/M11 A3001 RMK AO2 PK WND 23026/2210 SLP178 P0000 T10441111
Loading
Personal Weather Stations






























Interactive Weather Map New forecast layout! Learn more

10-Day Weather Forecast

Advertisements
Track Severe Weather on mobile